Westonzoyland, United Kingdom
Current Conditions -  °F | °C
As of 3:50 AM on Saturday 25 Oct 2014 (Local Time) from EGDY Reporting Station
Broken Clouds Broken Clouds  
Wind Chill: 50°   Ceiling: 4400
Heat Index: 50°   Visibility: 6mi
Dew Point: 45°   Wind: 5mph
Humidity: 82%   Direction: 230°SW
Pressure: 30"   Gusts: NA
Location:  51.11°N, 2.93°W
Report Text: EGDY 250250Z AUTO 23004KT 9999 BKN044/// 10/07 Q1016
Loading
Personal Weather Stations






























Interactive Weather Map
Tropical Storm Tracking
New forecast layout! Learn more

10-Day Weather Forecast

Advertisements
Track Severe Weather on mobile